Time;durP1;ratioP1;P1;durP2;ratioP2;P2;SDS_P1;SDS_P2;PMS_P1;PMS_P2;Temp;Humidity;BMP_temperature;BMP_pressure;BME280_temperature;BME280_humidity;BME280_pressure;Samples;Min_cycle;Max_cycle;Signal;HPM_P1;HPM_P2
2022/01/27 00:00:45;;;;;;;19.40;10.40;;;-4.30;99.90;;;;;;5057927;28;20020;-65
2022/01/27 00:06:00;;;;;;;35.80;19.00;;;-4.30;99.90;;;;;;5074034;28;20032;-66
2022/01/27 00:08:37;;;;;;;42.40;20.63;;;-4.30;99.90;;;;;;5040134;28;20033;-66
2022/01/27 00:11:09;;;;;;;32.13;16.60;;;-4.40;99.90;;;;;;5067776;28;20028;-65
2022/01/27 00:13:44;;;;;;;30.73;14.30;;;-4.50;99.90;;;;;;5055626;28;20033;-66
2022/01/27 00:16:17;;;;;;;32.00;14.67;;;-4.50;99.90;;;;;;5043764;28;20025;-66
2022/01/27 00:18:46;;;;;;;29.13;15.13;;;-4.50;99.90;;;;;;5027185;28;20466;-65
2022/01/27 00:21:15;;;;;;;29.37;15.23;;;-4.50;99.90;;;;;;5052698;28;20013;-66
2022/01/27 00:23:42;;;;;;;37.10;16.23;;;-4.50;99.90;;;;;;5054147;28;20044;-65
2022/01/27 00:26:09;;;;;;;30.80;15.63;;;-4.50;99.90;;;;;;5053870;28;20021;-66
2022/01/27 00:28:35;;;;;;;31.00;16.53;;;-4.40;99.90;;;;;;5053330;28;20024;-66
2022/01/27 00:31:01;;;;;;;27.77;14.20;;;-4.50;99.90;;;;;;5053734;28;20025;-67
2022/01/27 00:33:28;;;;;;;26.70;13.60;;;-4.40;99.90;;;;;;5045799;28;20120;-64
2022/01/27 00:35:54;;;;;;;26.30;12.40;;;-4.40;99.90;;;;;;5047780;28;20021;-65
2022/01/27 00:38:20;;;;;;;30.57;13.00;;;-4.40;99.90;;;;;;5053442;28;20054;-65
2022/01/27 00:40:46;;;;;;;29.07;12.93;;;-4.10;99.90;;;;;;5053451;28;20097;-65
2022/01/27 00:43:15;;;;;;;29.70;12.50;;;-4.30;99.90;;;;;;5035484;28;20473;-65
2022/01/27 00:45:41;;;;;;;22.60;11.43;;;-4.30;99.90;;;;;;5039912;28;20049;-65
2022/01/27 00:48:08;;;;;;;25.97;11.17;;;-4.20;99.90;;;;;;5033394;28;20021;-65
2022/01/27 00:50:36;;;;;;;32.17;14.00;;;-4.20;99.90;;;;;;5033863;28;20469;-66
2022/01/27 00:53:06;;;;;;;22.70;11.80;;;-4.40;99.90;;;;;;5053002;28;20043;-65
2022/01/27 00:55:39;;;;;;;21.70;11.60;;;-4.50;99.90;;;;;;5044104;28;20095;-65
2022/01/27 00:58:42;;;;;;;23.70;11.10;;;-4.60;99.90;;;;;;5031976;28;20034;-65
2022/01/27 01:01:12;;;;;;;21.80;10.97;;;-4.70;99.90;;;;;;5025913;28;20039;-66
2022/01/27 01:03:42;;;;;;;22.50;11.53;;;-4.70;99.90;;;;;;5052585;28;20029;-66
2022/01/27 01:06:25;;;;;;;20.83;10.97;;;-4.80;99.90;;;;;;5052597;28;20020;-66
2022/01/27 01:14:27;;;;;;;25.33;11.33;;;-4.50;99.90;;;;;;5049335;28;20107;-65
2022/01/27 01:29:56;;;;;;;35.37;18.30;;;-4.90;99.90;;;;;;5048343;28;20048;-65
2022/01/27 01:34:54;;;;;;;36.87;17.60;;;-5.00;99.90;;;;;;5052154;28;20021;-65
2022/01/27 01:37:20;;;;;;;36.93;16.27;;;-4.80;99.90;;;;;;5050065;28;20025;-65
2022/01/27 01:39:47;;;;;;;28.70;12.97;;;-4.90;99.90;;;;;;5031512;28;20021;-66
2022/01/27 01:42:13;;;;;;;20.70;9.70;;;-4.80;99.90;;;;;;5052429;28;20096;-66
2022/01/27 01:44:41;;;;;;;18.83;8.23;;;-4.60;99.90;;;;;;5052290;28;20049;-67
2022/01/27 01:47:07;;;;;;;15.67;7.90;;;-4.60;99.90;;;;;;5034479;28;20396;-66
2022/01/27 01:49:34;;;;;;;17.27;8.17;;;-4.50;99.90;;;;;;5026702;28;20034;-66
2022/01/27 01:52:05;;;;;;;17.53;8.87;;;-4.40;99.90;;;;;;5021693;28;20033;-66
2022/01/27 01:54:32;;;;;;;20.07;8.30;;;-4.50;99.90;;;;;;5032037;28;20033;-65
2022/01/27 01:56:59;;;;;;;18.67;8.33;;;-4.30;99.90;;;;;;5009653;28;20056;-66
2022/01/27 01:59:25;;;;;;;26.30;8.83;;;-4.20;99.90;;;;;;5002105;28;20424;-66
2022/01/27 02:01:51;;;;;;;22.97;8.57;;;-4.10;99.90;;;;;;5036262;28;20334;-66
2022/01/27 02:04:18;;;;;;;27.87;11.50;;;-4.00;99.90;;;;;;5034735;28;20022;-65
2022/01/27 02:20:08;;;;;;;50.30;19.10;;;-4.10;99.90;;;;;;5020886;28;20053;-65
2022/01/27 02:22:34;;;;;;;53.67;18.10;;;-4.20;99.90;;;;;;5041172;28;20021;-66
2022/01/27 02:25:00;;;;;;;60.13;18.90;;;-4.30;99.90;;;;;;5032553;28;20021;-64
2022/01/27 02:27:26;;;;;;;53.30;19.73;;;-4.30;99.90;;;;;;5040419;28;20075;-65
2022/01/27 02:29:53;;;;;;;44.27;16.70;;;-4.30;99.90;;;;;;5018306;28;20389;-66
2022/01/27 02:32:22;;;;;;;50.87;19.10;;;-4.40;99.90;;;;;;5042498;28;20030;-65
2022/01/27 02:34:49;;;;;;;41.40;15.40;;;-4.40;99.90;;;;;;5026976;28;20049;-66
2022/01/27 02:37:15;;;;;;;49.13;14.87;;;-4.30;99.90;;;;;;5026532;28;20053;-67
2022/01/27 02:39:41;;;;;;;34.20;15.37;;;-4.10;99.90;;;;;;5039266;28;20144;-66
2022/01/27 02:42:35;;;;;;;44.43;16.53;;;-4.10;99.90;;;;;;5034924;28;20024;-66
2022/01/27 02:45:04;;;;;;;34.17;15.70;;;-4.10;99.90;;;;;;5048915;28;20107;-66
2022/01/27 02:47:31;;;;;;;33.37;15.13;;;-4.20;99.90;;;;;;5051223;28;20437;-66
2022/01/27 02:49:59;;;;;;;38.17;14.83;;;-4.10;99.90;;;;;;5048150;28;20032;-65
2022/01/27 02:52:26;;;;;;;41.90;16.17;;;-4.10;99.90;;;;;;5031505;28;20524;-65
2022/01/27 02:54:52;;;;;;;42.27;15.43;;;-4.10;99.90;;;;;;5050867;28;20473;-65
2022/01/27 02:57:19;;;;;;;44.93;16.70;;;-4.00;99.90;;;;;;5052682;28;20024;-65
2022/01/27 02:59:46;;;;;;;48.07;15.93;;;-4.00;99.90;;;;;;5031661;28;20033;-65
2022/01/27 03:02:12;;;;;;;42.10;15.70;;;-3.70;99.90;;;;;;5047836;28;20048;-65
2022/01/27 03:04:39;;;;;;;38.83;15.23;;;-3.60;99.90;;;;;;5034158;28;20546;-66
2022/01/27 03:07:07;;;;;;;48.53;15.67;;;-3.60;99.90;;;;;;5051895;28;20040;-65
2022/01/27 03:09:34;;;;;;;49.47;17.70;;;-3.50;99.90;;;;;;5035949;28;20036;-65
2022/01/27 03:12:06;;;;;;;47.73;16.23;;;-3.30;99.90;;;;;;5054323;28;20037;-65
2022/01/27 03:14:34;;;;;;;39.90;16.43;;;-3.20;99.90;;;;;;5048357;28;20078;-64
2022/01/27 03:17:04;;;;;;;51.67;17.10;;;-3.00;99.90;;;;;;5053627;28;20037;-66
2022/01/27 03:19:30;;;;;;;51.73;20.17;;;-2.80;99.90;;;;;;5053922;28;20029;-65
2022/01/27 03:21:57;;;;;;;59.23;19.93;;;-2.80;99.90;;;;;;5034694;28;20029;-65
2022/01/27 03:24:24;;;;;;;51.33;20.57;;;-2.70;99.90;;;;;;5055520;28;20138;-66
2022/01/27 03:26:52;;;;;;;57.70;23.57;;;-2.50;99.90;;;;;;5049771;28;20104;-66
2022/01/27 03:29:19;;;;;;;64.87;30.20;;;-2.40;99.90;;;;;;5053691;28;20028;-66
2022/01/27 03:31:46;;;;;;;77.43;39.93;;;-2.30;99.80;;;;;;5052325;28;20021;-65
2022/01/27 03:34:13;;;;;;;73.23;42.23;;;-2.00;97.70;;;;;;5051133;28;20036;-66
2022/01/27 03:36:39;;;;;;;80.53;42.23;;;-2.00;97.90;;;;;;5054213;28;20025;-65
2022/01/27 03:39:07;;;;;;;70.90;37.40;;;-2.00;97.10;;;;;;5041205;28;20048;-66
2022/01/27 03:41:35;;;;;;;59.27;27.90;;;-1.90;97.30;;;;;;5029830;28;20029;-66
2022/01/27 03:44:02;;;;;;;64.73;29.27;;;-1.70;96.50;;;;;;5042816;28;20100;-64
2022/01/27 03:46:28;;;;;;;53.83;25.47;;;-1.70;96.70;;;;;;5053302;28;20040;-66
2022/01/27 03:48:54;;;;;;;67.70;24.10;;;-1.50;96.70;;;;;;5033295;28;20029;-65
2022/01/27 03:51:20;;;;;;;69.37;25.40;;;-1.40;96.30;;;;;;5052250;28;20412;-68
2022/01/27 03:53:46;;;;;;;82.53;26.97;;;-1.40;96.50;;;;;;5044566;28;20018;-66
2022/01/27 03:56:13;;;;;;;68.83;31.17;;;-1.20;97.10;;;;;;5027142;28;20033;-65
2022/01/27 03:58:39;;;;;;;74.00;32.50;;;-1.00;96.50;;;;;;5047003;28;20075;-67
2022/01/27 04:01:06;;;;;;;91.47;34.50;;;-0.90;96.00;;;;;;5045266;28;20052;-65
2022/01/27 04:03:36;;;;;;;107.13;44.47;;;-0.80;95.80;;;;;;5051026;28;20148;-64
2022/01/27 04:06:08;;;;;;;105.37;47.77;;;-0.70;94.30;;;;;;5045381;28;20094;-66
2022/01/27 04:08:37;;;;;;;106.10;45.50;;;-0.40;92.70;;;;;;5028702;28;20115;-65
2022/01/27 04:11:08;;;;;;;96.83;44.63;;;-0.30;90.50;;;;;;5054894;28;20043;-66
2022/01/27 04:13:35;;;;;;;101.70;46.35;;;-0.10;90.00;;;;;;5033045;28;20427;-69
2022/01/27 04:16:01;;;;;;;114.25;48.15;;;0.00;86.90;;;;;;5029299;28;20515;-66
2022/01/27 04:18:28;;;;;;;111.68;49.70;;;0.30;86.80;;;;;;5049073;28;20519;-66
2022/01/27 04:20:54;;;;;;;128.32;53.45;;;0.50;83.10;;;;;;5049241;28;20044;-66
2022/01/27 04:23:21;;;;;;;162.50;68.30;;;0.60;81.00;;;;;;5029964;28;20024;-67
2022/01/27 04:25:47;;;;;;;157.23;68.35;;;0.70;77.90;;;;;;5020070;28;20079;-67
2022/01/27 04:28:20;;;;;;;156.82;73.72;;;0.80;77.60;;;;;;5028865;28;20108;-66
2022/01/27 04:30:47;;;;;;;156.43;77.43;;;0.90;75.20;;;;;;5031053;28;20032;-70
2022/01/27 04:33:14;;;;;;;160.70;76.47;;;0.90;74.70;;;;;;5040928;28;20029;-66
2022/01/27 04:35:46;;;;;;;163.60;73.88;;;1.00;72.70;;;;;;5031224;28;20048;-69
2022/01/27 04:43:31;;;;;;;105.70;51.90;;;1.60;65.00;;;;;;5050470;28;20013;-69
2022/01/27 04:48:36;;;;;;;90.55;47.17;;;1.70;68.20;;;;;;5023318;28;20067;-66
2022/01/27 04:51:07;;;;;;;71.68;35.55;;;1.80;65.80;;;;;;5031391;28;20420;-67
2022/01/27 04:53:39;;;;;;;77.47;38.72;;;2.00;64.40;;;;;;5029178;28;20431;-67
2022/01/27 04:56:07;;;;;;;90.90;43.33;;;1.90;65.30;;;;;;5027178;28;20444;-67
2022/01/27 04:58:34;;;;;;;101.80;54.35;;;2.00;66.60;;;;;;5032615;28;20022;-67
2022/01/27 05:01:03;;;;;;;136.77;67.65;;;2.00;70.00;;;;;;5028403;28;20121;-67
2022/01/27 05:06:02;;;;;;;146.60;73.28;;;2.10;76.10;;;;;;5035300;28;20045;-67
2022/01/27 05:08:28;;;;;;;132.50;69.40;;;2.10;78.00;;;;;;5028750;28;20124;-68
2022/01/27 05:10:59;;;;;;;126.55;66.78;;;2.10;77.70;;;;;;5014029;28;20080;-67
2022/01/27 05:13:27;;;;;;;109.07;52.78;;;2.20;77.90;;;;;;5028594;28;20039;-66
2022/01/27 05:15:54;;;;;;;108.75;57.00;;;2.20;73.90;;;;;;5014671;28;20045;-67
2022/01/27 05:18:21;;;;;;;101.85;51.10;;;2.20;74.50;;;;;;4999280;28;20034;-66
2022/01/27 05:20:48;;;;;;;106.82;53.22;;;2.20;72.00;;;;;;5023084;28;20025;-68
2022/01/27 05:23:14;;;;;;;93.57;48.33;;;2.10;71.70;;;;;;5023566;28;20037;-66
2022/01/27 05:25:41;;;;;;;88.88;43.55;;;2.10;70.40;;;;;;5025875;28;20046;-67
2022/01/27 05:28:08;;;;;;;72.88;38.38;;;2.10;70.00;;;;;;5033243;28;20025;-68
2022/01/27 05:30:35;;;;;;;90.78;48.70;;;2.00;70.00;;;;;;5036124;28;20083;-67
2022/01/27 05:33:01;;;;;;;101.68;55.50;;;2.10;72.20;;;;;;5034351;28;20075;-67
2022/01/27 05:35:27;;;;;;;77.80;42.40;;;2.30;76.20;;;;;;5013991;28;20041;-67
2022/01/27 05:37:54;;;;;;;80.53;41.50;;;2.40;70.00;;;;;;5029546;28;20044;-68
2022/01/27 05:40:20;;;;;;;87.78;45.55;;;2.50;70.20;;;;;;5031023;28;20026;-67
2022/01/27 05:42:46;;;;;;;64.97;34.63;;;2.50;72.20;;;;;;5033514;28;20496;-65
2022/01/27 05:45:12;;;;;;;68.43;35.08;;;2.50;67.00;;;;;;5047385;28;20500;-66
2022/01/27 05:47:38;;;;;;;69.95;36.67;;;2.60;64.10;;;;;;5044500;28;20030;-64
2022/01/27 05:50:05;;;;;;;76.57;35.05;;;2.70;64.80;;;;;;5048549;28;20033;-67
2022/01/27 05:52:32;;;;;;;78.00;40.17;;;2.80;63.70;;;;;;5031427;28;20078;-65
2022/01/27 05:54:58;;;;;;;84.55;44.95;;;2.80;65.10;;;;;;5054230;28;20033;-67
2022/01/27 05:57:24;;;;;;;75.68;38.17;;;2.90;66.60;;;;;;5030127;28;20040;-67
2022/01/27 05:59:51;;;;;;;69.80;41.20;;;3.00;64.20;;;;;;5034125;28;20025;-66
2022/01/27 06:02:17;;;;;;;77.32;39.53;;;3.00;64.40;;;;;;5050256;28;20116;-67
2022/01/27 06:04:43;;;;;;;72.72;37.20;;;2.90;64.00;;;;;;5038561;28;20067;-66
2022/01/27 06:07:09;;;;;;;69.68;37.70;;;2.90;64.10;;;;;;5032384;28;20551;-65
2022/01/27 06:09:35;;;;;;;61.42;35.58;;;3.10;62.50;;;;;;5029018;28;20396;-66
2022/01/27 06:12:01;;;;;;;71.15;35.22;;;3.10;61.30;;;;;;5032405;28;20029;-66
2022/01/27 06:14:27;;;;;;;67.97;33.72;;;3.20;61.00;;;;;;5055713;28;20469;-68
2022/01/27 06:16:53;;;;;;;57.70;31.02;;;3.20;60.10;;;;;;5032643;28;20086;-67
2022/01/27 06:19:20;;;;;;;53.30;30.10;;;3.20;59.40;;;;;;5049646;28;20134;-69
2022/01/27 06:21:46;;;;;;;50.35;25.65;;;3.30;59.60;;;;;;5047095;28;20033;-66
2022/01/27 06:24:12;;;;;;;50.17;26.85;;;3.40;58.10;;;;;;5055783;28;20450;-68
2022/01/27 06:26:38;;;;;;;53.05;27.08;;;3.40;57.20;;;;;;5023398;28;20374;-67
2022/01/27 06:29:05;;;;;;;44.58;26.30;;;3.40;56.50;;;;;;5043738;28;20044;-68
2022/01/27 06:31:31;;;;;;;51.95;25.70;;;3.40;58.10;;;;;;5047033;28;20112;-67
2022/01/27 06:33:57;;;;;;;49.28;26.60;;;3.40;59.40;;;;;;5047108;28;20017;-67
2022/01/27 06:36:23;;;;;;;52.33;26.75;;;3.30;60.70;;;;;;5034079;28;20025;-68
2022/01/27 06:38:49;;;;;;;47.80;28.60;;;3.30;62.30;;;;;;5029032;28;20397;-68
2022/01/27 06:41:15;;;;;;;46.75;27.17;;;3.40;62.50;;;;;;5045444;28;20033;-69
2022/01/27 06:43:42;;;;;;;53.28;27.65;;;3.50;61.60;;;;;;5034020;28;20111;-67
2022/01/27 06:46:08;;;;;;;45.78;28.13;;;3.70;60.10;;;;;;5034390;28;20025;-69
2022/01/27 06:48:34;;;;;;;56.28;29.48;;;3.80;61.20;;;;;;5052519;28;20063;-69
2022/01/27 06:51:04;;;;;;;49.35;28.65;;;3.90;60.70;;;;;;5057011;28;20032;-69
2022/01/27 06:53:30;;;;;;;54.92;27.00;;;4.00;63.10;;;;;;5053257;28;20123;-66
2022/01/27 06:55:56;;;;;;;50.72;28.73;;;4.00;61.50;;;;;;5054451;28;20041;-67
2022/01/27 06:58:23;;;;;;;51.88;27.48;;;3.90;62.40;;;;;;5059354;28;20017;-69
2022/01/27 07:00:49;;;;;;;47.60;27.40;;;3.90;62.30;;;;;;5050291;28;20033;-68
2022/01/27 07:03:15;;;;;;;56.25;28.60;;;4.10;60.00;;;;;;5039785;28;20040;-68
2022/01/27 07:05:42;;;;;;;57.40;28.45;;;4.10;58.70;;;;;;5057542;28;20474;-67
2022/01/27 07:08:11;;;;;;;42.08;23.30;;;4.20;58.20;;;;;;5052710;28;20037;-68
2022/01/27 07:10:37;;;;;;;45.28;24.98;;;4.20;56.00;;;;;;5052299;28;20120;-67
2022/01/27 07:13:04;;;;;;;53.65;25.02;;;4.20;55.90;;;;;;5036834;28;20043;-69
2022/01/27 07:15:30;;;;;;;49.92;25.40;;;4.30;56.10;;;;;;5056278;28;20040;-69
2022/01/27 07:17:57;;;;;;;50.08;25.08;;;4.40;56.60;;;;;;5048150;28;20382;-67
2022/01/27 07:20:23;;;;;;;50.22;24.85;;;4.30;56.60;;;;;;5039270;28;20029;-69
2022/01/27 07:22:49;;;;;;;33.08;19.95;;;4.30;57.20;;;;;;5037621;28;20119;-67
2022/01/27 07:25:15;;;;;;;37.63;20.88;;;4.40;55.50;;;;;;5047052;28;20025;-69
2022/01/27 07:27:41;;;;;;;26.85;15.32;;;4.50;55.40;;;;;;5054874;28;20037;-68
2022/01/27 07:30:08;;;;;;;26.88;14.75;;;4.70;52.70;;;;;;5050117;28;20060;-68
2022/01/27 07:32:34;;;;;;;13.77;7.00;;;4.70;50.30;;;;;;5054941;28;20036;-69
2022/01/27 07:35:01;;;;;;;23.90;11.27;;;4.60;48.40;;;;;;5053143;28;20119;-69
2022/01/27 07:37:27;;;;;;;31.98;15.15;;;4.80;49.80;;;;;;5034123;28;20025;-70
2022/01/27 07:39:53;;;;;;;21.15;11.50;;;5.00;51.10;;;;;;5044928;28;20074;-70
2022/01/27 07:42:19;;;;;;;35.67;18.13;;;5.00;48.60;;;;;;5054558;28;20059;-69
2022/01/27 07:44:45;;;;;;;47.90;26.17;;;4.90;51.20;;;;;;5053318;28;21194;-69
2022/01/27 07:47:12;;;;;;;59.28;28.65;;;4.90;57.00;;;;;;5051039;28;20747;-68
2022/01/27 07:49:38;;;;;;;47.67;26.27;;;4.90;57.60;;;;;;5050392;28;20037;-69
2022/01/27 07:52:04;;;;;;;54.35;26.90;;;5.00;56.90;;;;;;5028980;28;20035;-69
2022/01/27 07:54:31;;;;;;;56.05;27.10;;;5.10;57.30;;;;;;5050857;28;20090;-69
2022/01/27 07:56:57;;;;;;;60.00;29.08;;;5.10;57.00;;;;;;5050121;28;20037;-68
2022/01/27 07:59:23;;;;;;;41.45;22.13;;;4.90;57.70;;;;;;5050840;28;20087;-67
2022/01/27 08:01:49;;;;;;;34.22;16.38;;;5.00;56.20;;;;;;5046827;28;20033;-68
2022/01/27 08:04:15;;;;;;;29.85;15.48;;;5.20;52.20;;;;;;5031538;28;20025;-68
2022/01/27 08:06:42;;;;;;;38.33;19.50;;;5.20;50.80;;;;;;5042670;28;20026;-70
2022/01/27 08:09:08;;;;;;;29.15;15.68;;;5.30;51.80;;;;;;5048307;28;20492;-69
2022/01/27 08:11:34;;;;;;;38.22;17.60;;;5.30;51.60;;;;;;5059305;28;20041;-68
2022/01/27 08:14:00;;;;;;;41.13;21.45;;;5.30;50.00;;;;;;5036086;28;20036;-67
2022/01/27 08:16:26;;;;;;;26.55;11.88;;;5.30;52.10;;;;;;5032901;28;20037;-69
2022/01/27 08:18:52;;;;;;;20.48;10.32;;;5.30;49.90;;;;;;5036851;28;20021;-70
2022/01/27 08:21:34;;;;;;;20.38;9.05;;;5.40;47.40;;;;;;5041610;28;20449;-69
2022/01/27 08:24:00;;;;;;;24.38;12.10;;;5.40;45.50;;;;;;5048650;28;20055;-66
2022/01/27 08:26:37;;;;;;;26.33;13.10;;;5.50;46.80;;;;;;5048103;28;20056;-69
2022/01/27 08:29:10;;;;;;;29.02;14.07;;;5.50;47.50;;;;;;5035710;28;20060;-68
2022/01/27 08:37:28;;;;;;;18.60;9.32;;;5.70;45.70;;;;;;5037576;28;20029;-67
2022/01/27 08:39:54;;;;;;;33.63;17.35;;;5.60;45.80;;;;;;5052878;28;20036;-68
2022/01/27 08:42:20;;;;;;;32.33;18.77;;;5.60;49.50;;;;;;5032784;28;20120;-67
2022/01/27 08:44:46;;;;;;;33.60;18.77;;;5.80;50.80;;;;;;5037594;28;20400;-68
2022/01/27 08:47:15;;;;;;;24.65;12.38;;;5.60;50.90;;;;;;5026201;28;20029;-68
2022/01/27 08:49:44;;;;;;;30.58;14.55;;;5.60;49.10;;;;;;5024380;28;20035;-68
2022/01/27 08:52:10;;;;;;;34.00;16.98;;;5.80;48.50;;;;;;5024239;28;21315;-68
2022/01/27 08:54:36;;;;;;;31.48;17.35;;;5.70;50.00;;;;;;5025657;28;20034;-68
2022/01/27 08:57:02;;;;;;;36.60;18.17;;;5.70;50.00;;;;;;5028237;28;20551;-67
2022/01/27 08:59:29;;;;;;;34.72;16.65;;;5.70;51.00;;;;;;5028470;28;20029;-67
2022/01/27 09:01:55;;;;;;;35.50;18.20;;;5.70;50.80;;;;;;5011632;28;20489;-66
2022/01/27 09:04:21;;;;;;;31.30;17.52;;;5.60;51.50;;;;;;5027410;28;20537;-68
2022/01/27 09:06:47;;;;;;;35.72;18.00;;;5.60;51.50;;;;;;5031652;28;20045;-68
2022/01/27 09:09:13;;;;;;;36.28;17.10;;;5.70;51.60;;;;;;5030311;28;20024;-68
2022/01/27 09:11:43;;;;;;;33.95;15.10;;;5.70;51.50;;;;;;5027942;28;20510;-69
2022/01/27 09:14:31;;;;;;;33.00;16.08;;;5.80;51.80;;;;;;5026915;28;20038;-68
2022/01/27 09:16:58;;;;;;;31.33;16.52;;;5.70;52.80;;;;;;5019274;28;20028;-69
2022/01/27 09:19:26;;;;;;;33.80;14.98;;;5.80;52.60;;;;;;5025846;28;20108;-70
2022/01/27 09:21:54;;;;;;;26.15;13.63;;;5.70;52.20;;;;;;5047961;28;20028;-70
2022/01/27 09:24:28;;;;;;;27.95;14.30;;;5.60;52.80;;;;;;5030189;28;20048;-69
2022/01/27 09:27:03;;;;;;;28.48;16.63;;;5.60;52.40;;;;;;5030267;28;20401;-69
2022/01/27 09:29:29;;;;;;;33.38;16.13;;;5.50;52.70;;;;;;5042217;28;20049;-71
2022/01/27 09:31:56;;;;;;;26.50;15.65;;;5.40;53.30;;;;;;5047850;28;20477;-69
2022/01/27 09:34:23;;;;;;;29.23;14.30;;;5.50;52.70;;;;;;5046944;28;20025;-70
2022/01/27 09:36:54;;;;;;;34.92;14.43;;;5.40;53.00;;;;;;5044269;28;20526;-70
2022/01/27 09:39:21;;;;;;;32.47;13.00;;;5.50;52.70;;;;;;5047539;28;20029;-72
2022/01/27 09:41:50;;;;;;;25.52;12.60;;;5.40;52.50;;;;;;5032278;28;20021;-67
2022/01/27 09:44:17;;;;;;;30.40;12.57;;;5.70;52.40;;;;;;5045647;28;20091;-69
2022/01/27 09:46:46;;;;;;;25.85;12.18;;;5.70;52.40;;;;;;5022918;28;20033;-70
2022/01/27 09:49:19;;;;;;;20.25;11.63;;;5.70;52.00;;;;;;5042890;28;20053;-70
2022/01/27 09:51:47;;;;;;;32.80;12.45;;;5.60;52.20;;;;;;5039991;28;20029;-68
2022/01/27 09:54:15;;;;;;;25.83;11.02;;;5.70;52.30;;;;;;5040056;28;20397;-71
2022/01/27 09:56:42;;;;;;;25.00;11.75;;;5.70;51.20;;;;;;5045308;28;20048;-72
2022/01/27 09:59:09;;;;;;;25.98;12.10;;;5.80;51.50;;;;;;5048994;28;20030;-69
2022/01/27 10:01:37;;;;;;;24.60;11.60;;;5.70;52.30;;;;;;5018985;28;20033;-72
2022/01/27 10:04:06;;;;;;;23.27;12.32;;;5.70;52.60;;;;;;5024583;28;20037;-72
2022/01/27 10:06:34;;;;;;;22.70;12.48;;;5.50;53.70;;;;;;5041980;28;20044;-70
2022/01/27 10:09:17;;;;;;;21.05;11.98;;;5.30;54.10;;;;;;5023011;28;20040;-70
2022/01/27 10:11:49;;;;;;;22.70;11.13;;;5.40;53.40;;;;;;5053410;28;20051;-70
2022/01/27 10:14:22;;;;;;;17.98;10.55;;;5.50;52.80;;;;;;5048675;28;20120;-71
2022/01/27 10:16:51;;;;;;;21.05;11.38;;;5.40;52.80;;;;;;5048797;28;20036;-69
2022/01/27 10:19:18;;;;;;;21.98;12.25;;;5.30;52.90;;;;;;5029030;28;20028;-68
2022/01/27 10:21:44;;;;;;;17.88;10.35;;;5.30;52.90;;;;;;5035274;28;20033;-69
2022/01/27 10:24:26;;;;;;;24.35;9.80;;;5.10;53.30;;;;;;5047357;28;20029;-70
2022/01/27 10:32:43;;;;;;;16.27;9.73;;;5.00;52.80;;;;;;5045373;28;20076;-69
2022/01/27 10:35:11;;;;;;;15.75;8.82;;;4.80;52.90;;;;;;5050331;28;20039;-69
2022/01/27 10:38:03;;;;;;;19.10;8.23;;;4.90;51.70;;;;;;5048468;28;20031;-68
2022/01/27 10:40:32;;;;;;;20.40;10.85;;;4.90;51.80;;;;;;5032049;28;20029;-68
2022/01/27 10:43:18;;;;;;;19.65;10.30;;;4.90;52.20;;;;;;5045356;28;20148;-69
2022/01/27 10:46:11;;;;;;;21.50;11.88;;;4.80;51.90;;;;;;5047850;28;20049;-70
2022/01/27 10:48:54;;;;;;;21.83;11.32;;;4.80;51.70;;;;;;5059474;28;20311;-68
2022/01/27 10:51:36;;;;;;;25.90;12.23;;;4.80;51.60;;;;;;5045401;28;20033;-69
2022/01/27 10:54:06;;;;;;;23.40;13.20;;;4.70;51.40;;;;;;5041654;28;20084;-68
2022/01/27 10:56:36;;;;;;;20.88;10.82;;;4.70;51.50;;;;;;5036867;28;20033;-70
2022/01/27 10:59:11;;;;;;;20.88;10.25;;;4.70;51.60;;;;;;5059574;28;20025;-70
2022/01/27 11:01:40;;;;;;;21.52;10.30;;;4.60;51.80;;;;;;5053633;28;20087;-68
2022/01/27 11:04:09;;;;;;;19.65;10.13;;;4.50;51.90;;;;;;5033362;28;20021;-69
2022/01/27 11:06:36;;;;;;;20.85;10.73;;;4.60;51.70;;;;;;5030618;28;20028;-70
2022/01/27 11:09:08;;;;;;;20.27;9.45;;;4.40;51.70;;;;;;5050738;28;20032;-70
2022/01/27 11:11:36;;;;;;;15.63;9.15;;;4.30;52.20;;;;;;5052093;28;20060;-68
2022/01/27 11:14:04;;;;;;;22.80;10.15;;;4.20;52.30;;;;;;5029651;28;20037;-69
2022/01/27 11:16:36;;;;;;;21.17;10.60;;;4.20;52.50;;;;;;5038662;28;20408;-71
2022/01/27 11:21:41;;;;;;;18.58;8.90;;;4.00;53.30;;;;;;5056569;28;20028;-69
2022/01/27 11:24:18;;;;;;;22.42;9.63;;;4.10;53.10;;;;;;5051252;28;20548;-68
2022/01/27 11:26:46;;;;;;;19.55;7.80;;;3.90;54.00;;;;;;5055968;28;20476;-70
2022/01/27 11:29:14;;;;;;;22.63;9.07;;;4.00;53.30;;;;;;5059955;28;20028;-71
2022/01/27 11:32:18;;;;;;;19.88;8.20;;;3.90;53.60;;;;;;5047213;28;20025;-71
2022/01/27 11:34:50;;;;;;;14.52;7.53;;;4.00;53.90;;;;;;5046428;28;20044;-69
2022/01/27 11:37:28;;;;;;;12.93;7.72;;;3.80;53.80;;;;;;5056281;28;20315;-70
2022/01/27 11:39:56;;;;;;;17.65;8.52;;;3.80;54.00;;;;;;5060722;28;20051;-70
2022/01/27 11:42:35;;;;;;;16.17;8.52;;;3.70;54.20;;;;;;5059273;28;20017;-69
2022/01/27 11:45:42;;;;;;;16.20;7.95;;;3.70;54.50;;;;;;5038181;28;20055;-71
2022/01/27 11:48:23;;;;;;;18.08;8.43;;;3.60;54.50;;;;;;4993791;28;20390;-71
2022/01/27 11:51:14;;;;;;;16.75;8.38;;;3.60;54.70;;;;;;5048072;28;20485;-70
2022/01/27 11:53:51;;;;;;;14.82;7.97;;;3.40;55.10;;;;;;5040015;28;20561;-70
2022/01/27 11:56:31;;;;;;;19.23;9.30;;;3.40;55.30;;;;;;5048990;28;20107;-71
2022/01/27 11:59:02;;;;;;;32.28;15.63;;;3.30;55.80;;;;;;5030630;28;20033;-70
2022/01/27 12:01:30;;;;;;;44.92;25.58;;;3.40;56.60;;;;;;5057109;28;20043;-69
2022/01/27 12:04:04;;;;;;;49.88;23.20;;;3.40;57.90;;;;;;5054126;28;20029;-71
2022/01/27 12:06:35;;;;;;;55.90;27.33;;;3.40;58.10;;;;;;5045305;28;20057;-70
2022/01/27 12:09:19;;;;;;;56.67;33.13;;;3.20;59.30;;;;;;5054111;28;20488;-69
2022/01/27 12:11:55;;;;;;;57.65;33.15;;;3.00;60.10;;;;;;5045150;28;20056;-68
2022/01/27 12:14:29;;;;;;;65.18;35.40;;;2.80;61.00;;;;;;5048812;28;20473;-69
2022/01/27 12:17:16;;;;;;;74.50;40.72;;;2.80;62.00;;;;;;5051251;28;20478;-68
2022/01/27 12:19:53;;;;;;;88.47;49.03;;;2.60;62.90;;;;;;5047745;28;20029;-68
2022/01/27 12:22:47;;;;;;;90.85;51.65;;;2.60;65.30;;;;;;5054032;28;20041;-68
2022/01/27 12:25:14;;;;;;;92.88;55.70;;;2.50;66.70;;;;;;5037892;28;20033;-68
2022/01/27 12:27:48;;;;;;;105.20;57.92;;;2.40;68.70;;;;;;5049350;28;20203;-68
2022/01/27 12:30:14;;;;;;;108.22;61.13;;;2.60;71.60;;;;;;5035184;28;20029;-68
2022/01/27 12:32:40;;;;;;;114.55;63.85;;;2.50;73.70;;;;;;5039545;28;20112;-68
2022/01/27 12:35:15;;;;;;;108.47;62.00;;;2.60;74.90;;;;;;5046370;28;20024;-67
2022/01/27 12:37:47;;;;;;;113.88;63.13;;;2.50;76.50;;;;;;5073209;28;20035;-67
2022/01/27 12:40:19;;;;;;;126.32;70.93;;;2.30;78.30;;;;;;5045833;28;20039;-68
2022/01/27 12:42:58;;;;;;;123.63;69.50;;;2.20;82.30;;;;;;5053128;28;20025;-69
2022/01/27 12:45:30;;;;;;;124.53;69.72;;;2.30;84.90;;;;;;5034985;28;20057;-69
2022/01/27 12:48:02;;;;;;;123.43;69.10;;;2.30;87.10;;;;;;5050047;28;20044;-68
2022/01/27 12:50:29;;;;;;;129.27;73.00;;;2.20;89.40;;;;;;5032875;28;20033;-68
2022/01/27 12:53:00;;;;;;;132.43;72.72;;;2.10;90.90;;;;;;5032898;28;20067;-68
2022/01/27 12:55:33;;;;;;;131.10;76.57;;;2.10;92.00;;;;;;5040099;28;20029;-68
2022/01/27 12:58:04;;;;;;;139.95;81.38;;;2.10;93.40;;;;;;5047439;28;20029;-68
2022/01/27 13:00:41;;;;;;;141.18;81.35;;;2.00;94.10;;;;;;5037136;28;20030;-69
2022/01/27 13:03:08;;;;;;;148.05;83.80;;;2.00;95.90;;;;;;5046390;28;20104;-67
2022/01/27 13:05:40;;;;;;;143.23;81.97;;;1.90;97.00;;;;;;5047965;28;20033;-68
2022/01/27 13:08:08;;;;;;;139.93;80.18;;;1.80;98.60;;;;;;5033900;28;20029;-69
2022/01/27 13:10:35;;;;;;;147.13;81.53;;;1.90;99.90;;;;;;5051861;28;20436;-68
2022/01/27 13:13:17;;;;;;;139.07;84.25;;;1.80;99.90;;;;;;5032583;28;20029;-68
2022/01/27 13:15:44;;;;;;;143.45;81.70;;;1.70;99.90;;;;;;5030365;28;20028;-68
2022/01/27 13:18:18;;;;;;;156.02;87.47;;;1.70;99.90;;;;;;5048388;28;20029;-67
2022/01/27 13:20:49;;;;;;;140.57;82.22;;;1.70;99.90;;;;;;5047406;28;20025;-68
2022/01/27 13:23:28;;;;;;;145.05;81.93;;;1.80;99.90;;;;;;5028617;28;20036;-68
2022/01/27 13:26:07;;;;;;;132.27;74.40;;;1.70;99.90;;;;;;5049090;28;20389;-68
2022/01/27 13:28:37;;;;;;;130.52;74.70;;;1.70;99.90;;;;;;5049991;28;20421;-67
2022/01/27 13:31:10;;;;;;;120.95;70.60;;;1.50;99.90;;;;;;5047874;28;20428;-67
2022/01/27 13:33:42;;;;;;;106.85;60.92;;;1.40;99.90;;;;;;5048201;28;20028;-68
2022/01/27 13:36:25;;;;;;;110.55;62.60;;;1.40;99.90;;;;;;5029693;28;20036;-69
2022/01/27 13:39:10;;;;;;;99.10;53.75;;;1.40;99.90;;;;;;5049078;28;20025;-67
2022/01/27 13:41:46;;;;;;;87.55;49.80;;;1.40;99.90;;;;;;5030776;28;20017;-67
2022/01/27 13:44:18;;;;;;;88.40;49.47;;;1.20;99.90;;;;;;5048077;28;20067;-67
2022/01/27 13:46:48;;;;;;;88.53;51.20;;;1.10;99.90;;;;;;5049888;28;20021;-68